Pensacola, FL (32512)

6:35 AM CDT on August 24, 2016 (GMT -0500)
APRSWXNET | | Change Station

Elev 75 ft 30.51 °N, 87.18 °W | Updated 239 days ago

Partly Cloudy
Partly Cloudy
83 °F
Feels Like 91 °F
N
8
Wind Variable Wind from East
Gusts mph

Today
High -- | Low -- °F
--% Chance of Precip.
Yesterday
High -- | Low -- °F
Precip. -- in
Pressure 30.14 in
Visibility 10.0 miles
Clouds Clear
Heat Index 91 °F
Dew Point 77 °F
Humidity 81%
Rainfall in
Snow Depth Not available.
6:21 AM 7:20 PM
Waning Gibbous, 58% visible
METAR KPNS 241053Z 08005KT 10SM CLR 26/23 A3013 RMK AO2 SLP204 T02610233
Pressure 30.14 in
Visibility 10.0 miles
Clouds Clear
Heat Index 91 °F
Dew Point 77 °F
Humidity 81%
Rainfall in
Snow Depth Not available.
6:21 AM 7:20 PM
Waning Gibbous, 58% visible
METAR KPNS 241053Z 08005KT 10SM CLR 26/23 A3013 RMK AO2 SLP204 T02610233

10-Day Weather Forecast

Almanac

Astronomy

Aug. 24, 2016 Rise Set
Actual Time
Civil Twilight
Nautical Twilight
Astronomical Twilight
Moon
Length of Visible Light
Length of Day
Tomorrow will be .
, % of the Moon is Illuminated

Today's Extremes

State Highs State Lows

Community

WunderPhotos

Upload Photos

1,934,564 photos uploaded!

WunderBlog® & News

Nearby

Air Quality

  Air Quality AQ Index Pollutant
Not available.

Snow Depth

Station Depth Elevation

Earthquake Activity

City Distance Mag. Time & Date
Minimum magnitude displayed is 2.5.

Coastal Water Temperatures

Place Temperature

Stations

Nearby Weather Stations

Station Location Temp. Windchill Dew Point Humidity Wind Precip. Elev Updated Type
                   

Watches & Warnings

There are currently no watches in effect.